Time;durP1;ratioP1;P1;durP2;ratioP2;P2;SDS_P1;SDS_P2;PMS_P1;PMS_P2;Temp;Humidity;BMP_temperature;BMP_pressure;BME280_temperature;BME280_humidity;BME280_pressure;Samples;Min_cycle;Max_cycle;Signal;HPM_P1;HPM_P2
2021/08/11 00:02:13;;;;;;;13.50;12.10;;;;;;;;;;5033188;28;20445;-55
2021/08/11 00:04:40;;;;;;;14.33;12.93;;;;;;;;;;5033228;28;20853;-55
2021/08/11 00:07:08;;;;;;;15.40;13.80;;;;;;;;;;5033185;28;20731;-55
2021/08/11 00:09:36;;;;;;;14.80;13.40;;;;;;;;;;5033106;28;20499;-55
2021/08/11 00:12:04;;;;;;;15.23;13.73;;;;;;;;;;5033138;28;20441;-53
2021/08/11 00:14:31;;;;;;;14.77;13.37;;;;;;;;;;5033035;28;20888;-55
2021/08/11 00:16:58;;;;;;;15.50;14.10;;;;;;;;;;5032635;28;20477;-55
2021/08/11 00:19:25;;;;;;;15.47;13.83;;;;;;;;;;5033112;28;20445;-55
2021/08/11 00:21:53;;;;;;;16.17;14.30;;;;;;;;;;5032702;28;20877;-55
2021/08/11 00:24:20;;;;;;;15.47;13.87;;;;;;;;;;5035898;28;20467;-55
2021/08/11 00:26:49;;;;;;;15.60;14.10;;;;;;;;;;5037053;28;20473;-54
2021/08/11 00:29:16;;;;;;;14.00;12.60;;;;;;;;;;5037028;28;20448;-56
2021/08/11 00:31:43;;;;;;;15.43;12.77;;;;;;;;;;5037037;28;20502;-55
2021/08/11 00:34:10;;;;;;;16.50;14.57;;;;;;;;;;5036633;28;20531;-55
2021/08/11 00:36:37;;;;;;;14.80;13.20;;;;;;;;;;5036552;28;20469;-55
2021/08/11 00:39:05;;;;;;;15.00;13.50;;;;;;;;;;5036952;28;20440;-55
2021/08/11 00:41:32;;;;;;;15.37;13.97;;;;;;;;;;5036927;28;20445;-55
2021/08/11 00:44:01;;;;;;;14.33;12.93;;;;;;;;;;5036749;28;20997;-56
2021/08/11 00:46:28;;;;;;;15.13;13.57;;;;;;;;;;5036660;28;21046;-56
2021/08/11 00:48:56;;;;;;;13.67;12.40;;;;;;;;;;5036532;28;20452;-56
2021/08/11 00:51:23;;;;;;;15.20;12.20;;;;;;;;;;5036704;28;20444;-56
2021/08/11 00:53:51;;;;;;;15.23;13.53;;;;;;;;;;5037387;28;20884;-56
2021/08/11 00:56:19;;;;;;;15.60;12.83;;;;;;;;;;5036651;28;20465;-56
2021/08/11 00:58:46;;;;;;;15.07;13.60;;;;;;;;;;5036673;28;20864;-55
2021/08/11 01:01:15;;;;;;;15.50;13.30;;;;;;;;;;5036309;28;20937;-55
2021/08/11 01:03:42;;;;;;;13.60;12.20;;;;;;;;;;5036198;28;20510;-55
2021/08/11 01:06:10;;;;;;;13.83;12.33;;;;;;;;;;5036028;28;20477;-56
2021/08/11 01:08:37;;;;;;;14.27;12.87;;;;;;;;;;5036531;28;20498;-55
2021/08/11 01:11:05;;;;;;;15.73;12.50;;;;;;;;;;5036096;28;20449;-55
2021/08/11 01:13:32;;;;;;;14.03;12.53;;;;;;;;;;5036317;28;20481;-55
2021/08/11 01:16:00;;;;;;;16.00;13.30;;;;;;;;;;5036173;28;20473;-56
2021/08/11 01:18:28;;;;;;;15.83;13.47;;;;;;;;;;5036349;28;20437;-55
2021/08/11 01:20:59;;;;;;;13.40;12.07;;;;;;;;;;5036381;28;20445;-55
2021/08/11 01:23:28;;;;;;;14.67;12.97;;;;;;;;;;5036030;28;20495;-56
2021/08/11 01:26:00;;;;;;;15.27;13.77;;;;;;;;;;5036136;28;20448;-55
2021/08/11 01:28:46;;;;;;;14.70;13.20;;;;;;;;;;5036116;28;20955;-56
2021/08/11 01:31:15;;;;;;;16.40;13.37;;;;;;;;;;5036209;28;20450;-56
2021/08/11 01:33:50;;;;;;;15.33;12.33;;;;;;;;;;5036003;28;20472;-55
2021/08/11 01:36:24;;;;;;;13.90;12.37;;;;;;;;;;5035030;28;21042;-55
2021/08/11 01:38:56;;;;;;;14.23;12.50;;;;;;;;;;5035797;28;20478;-55
2021/08/11 01:41:26;;;;;;;16.90;12.63;;;;;;;;;;5035965;28;20532;-55
2021/08/11 01:43:54;;;;;;;15.73;13.47;;;;;;;;;;5036172;28;20441;-55
2021/08/11 01:46:21;;;;;;;15.80;13.00;;;;;;;;;;5035523;28;21034;-55
2021/08/11 01:48:50;;;;;;;13.70;11.57;;;;;;;;;;5035784;28;20449;-55
2021/08/11 01:51:18;;;;;;;14.20;12.70;;;;;;;;;;5035756;28;20441;-55
2021/08/11 01:53:45;;;;;;;13.47;11.23;;;;;;;;;;5035624;28;20476;-55
2021/08/11 01:56:14;;;;;;;13.40;11.70;;;;;;;;;;5035547;28;20465;-54
2021/08/11 01:58:43;;;;;;;15.10;11.83;;;;;;;;;;5035575;28;20444;-55
2021/08/11 02:01:10;;;;;;;14.80;13.17;;;;;;;;;;5035214;28;21032;-57
2021/08/11 02:03:38;;;;;;;15.03;13.53;;;;;;;;;;5036009;28;20836;-54
2021/08/11 02:06:07;;;;;;;14.27;12.77;;;;;;;;;;5035431;28;20461;-54
2021/08/11 02:08:35;;;;;;;16.03;13.20;;;;;;;;;;5035038;28;20495;-55
2021/08/11 02:11:02;;;;;;;15.50;12.40;;;;;;;;;;5035524;28;20498;-55
2021/08/11 02:13:30;;;;;;;14.37;12.73;;;;;;;;;;5035140;28;20493;-55
2021/08/11 02:15:57;;;;;;;16.70;13.77;;;;;;;;;;5034778;28;20449;-56
2021/08/11 02:18:24;;;;;;;15.90;13.20;;;;;;;;;;5035441;28;20433;-55
2021/08/11 02:20:52;;;;;;;15.53;13.27;;;;;;;;;;5035255;28;20809;-54
2021/08/11 02:23:20;;;;;;;16.40;12.93;;;;;;;;;;5035141;28;20506;-55
2021/08/11 02:25:50;;;;;;;15.47;13.13;;;;;;;;;;5034885;28;20925;-55
2021/08/11 02:28:23;;;;;;;15.50;13.90;;;;;;;;;;5035128;28;20472;-55
2021/08/11 02:30:53;;;;;;;15.20;12.60;;;;;;;;;;5035026;28;20433;-54
2021/08/11 02:33:23;;;;;;;16.20;14.20;;;;;;;;;;5034947;28;20779;-55
2021/08/11 02:35:53;;;;;;;15.10;13.50;;;;;;;;;;5034855;28;20429;-55
2021/08/11 02:38:25;;;;;;;16.40;13.83;;;;;;;;;;5034853;28;20453;-54
2021/08/11 02:40:56;;;;;;;16.47;13.93;;;;;;;;;;5034516;28;20429;-55
2021/08/11 02:43:24;;;;;;;15.73;12.63;;;;;;;;;;5034398;28;20487;-54
2021/08/11 02:45:55;;;;;;;16.20;13.67;;;;;;;;;;5034971;28;20929;-55
2021/08/11 02:48:22;;;;;;;15.40;12.63;;;;;;;;;;5033226;28;20516;-54
2021/08/11 02:50:50;;;;;;;17.73;13.73;;;;;;;;;;5034518;28;20461;-55
2021/08/11 02:53:20;;;;;;;16.07;13.40;;;;;;;;;;5034039;28;21011;-55
2021/08/11 02:55:49;;;;;;;15.17;12.70;;;;;;;;;;5034356;28;20555;-55
2021/08/11 02:58:18;;;;;;;15.60;13.27;;;;;;;;;;5034401;28;20445;-55
2021/08/11 03:00:45;;;;;;;14.80;12.97;;;;;;;;;;5033980;28;20779;-54
2021/08/11 03:03:12;;;;;;;15.07;13.57;;;;;;;;;;5033984;28;20506;-55
2021/08/11 03:05:39;;;;;;;14.00;12.50;;;;;;;;;;5034103;28;20445;-55
2021/08/11 03:08:08;;;;;;;15.27;13.30;;;;;;;;;;5033926;28;20971;-53
2021/08/11 03:10:35;;;;;;;14.40;13.00;;;;;;;;;;5034464;28;20527;-54
2021/08/11 03:13:04;;;;;;;15.70;13.20;;;;;;;;;;5034148;28;20874;-54
2021/08/11 03:15:32;;;;;;;18.10;13.63;;;;;;;;;;5033961;28;20481;-53
2021/08/11 03:18:00;;;;;;;15.80;13.10;;;;;;;;;;5033511;28;20547;-55
2021/08/11 03:20:27;;;;;;;13.60;12.20;;;;;;;;;;5033722;28;21033;-55
2021/08/11 03:22:54;;;;;;;14.17;12.20;;;;;;;;;;5034019;28;20445;-55
2021/08/11 03:25:21;;;;;;;15.90;12.50;;;;;;;;;;5033948;28;20457;-55
2021/08/11 03:27:48;;;;;;;16.63;13.27;;;;;;;;;;5033483;28;20514;-54
2021/08/11 03:30:17;;;;;;;15.93;13.27;;;;;;;;;;5033780;28;20441;-54
2021/08/11 03:32:44;;;;;;;13.97;12.40;;;;;;;;;;5033826;28;20448;-55
2021/08/11 03:35:11;;;;;;;14.37;12.87;;;;;;;;;;5033569;28;20489;-55
2021/08/11 03:37:39;;;;;;;21.97;12.87;;;;;;;;;;5033248;28;20465;-55
2021/08/11 03:40:06;;;;;;;15.67;13.93;;;;;;;;;;5033234;28;20502;-55
2021/08/11 03:42:34;;;;;;;14.73;12.57;;;;;;;;;;5033255;28;20866;-55
2021/08/11 03:45:01;;;;;;;15.00;12.00;;;;;;;;;;5033657;28;20441;-55
2021/08/11 03:47:29;;;;;;;13.43;12.03;;;;;;;;;;5033538;28;20464;-55
2021/08/11 03:49:57;;;;;;;15.80;13.47;;;;;;;;;;5033510;28;20453;-55
2021/08/11 03:52:24;;;;;;;17.00;12.30;;;;;;;;;;5033044;28;20933;-55
2021/08/11 03:54:51;;;;;;;14.93;13.33;;;;;;;;;;5033473;28;20481;-55
2021/08/11 03:57:18;;;;;;;15.17;12.80;;;;;;;;;;5033493;28;20534;-55
2021/08/11 03:59:46;;;;;;;16.17;12.77;;;;;;;;;;5033000;28;20867;-55
2021/08/11 04:02:13;;;;;;;14.70;12.80;;;;;;;;;;5033172;28;20448;-55
2021/08/11 04:04:41;;;;;;;15.07;11.67;;;;;;;;;;5033466;28;20449;-55
2021/08/11 04:08:26;;;;;;;16.57;13.00;;;;;;;;;;5091368;27;20537;-56
2021/08/11 04:10:53;;;;;;;16.13;13.17;;;;;;;;;;5090529;28;20446;-55
2021/08/11 04:13:21;;;;;;;15.73;12.53;;;;;;;;;;5090480;28;20958;-55
2021/08/11 04:15:48;;;;;;;15.30;13.47;;;;;;;;;;5090948;28;20497;-56
2021/08/11 04:18:16;;;;;;;15.67;12.50;;;;;;;;;;5092176;28;20438;-56
2021/08/11 04:20:44;;;;;;;13.57;12.17;;;;;;;;;;5090428;28;20782;-56
2021/08/11 04:23:11;;;;;;;15.50;12.10;;;;;;;;;;5090399;28;20562;-56
2021/08/11 04:25:41;;;;;;;14.93;12.90;;;;;;;;;;5090038;28;20862;-56
2021/08/11 04:28:09;;;;;;;18.20;12.67;;;;;;;;;;5089897;28;20470;-56
2021/08/11 04:30:36;;;;;;;13.53;11.50;;;;;;;;;;5090122;28;20447;-56
2021/08/11 04:33:04;;;;;;;15.60;12.40;;;;;;;;;;5090160;28;20457;-56
2021/08/11 04:35:31;;;;;;;13.87;12.00;;;;;;;;;;5090261;28;20518;-55
2021/08/11 04:37:58;;;;;;;11.93;10.80;;;;;;;;;;5090131;28;20870;-55
2021/08/11 04:40:26;;;;;;;12.23;10.33;;;;;;;;;;5089912;28;20454;-55
2021/08/11 04:42:54;;;;;;;11.10;10.00;;;;;;;;;;5089843;28;20496;-57
2021/08/11 04:45:22;;;;;;;12.70;9.67;;;;;;;;;;5089752;28;20443;-55
2021/08/11 04:47:49;;;;;;;9.60;8.67;;;;;;;;;;5089694;28;20535;-55
2021/08/11 04:50:16;;;;;;;12.17;8.87;;;;;;;;;;5089593;28;20935;-56
2021/08/11 04:52:44;;;;;;;12.00;8.20;;;;;;;;;;5089895;28;20450;-56
2021/08/11 04:55:12;;;;;;;8.50;7.60;;;;;;;;;;5089511;28;20471;-56
2021/08/11 04:57:40;;;;;;;10.20;7.80;;;;;;;;;;5089890;28;20459;-56
2021/08/11 05:00:09;;;;;;;9.10;8.20;;;;;;;;;;5089674;28;20442;-58
2021/08/11 05:02:37;;;;;;;12.03;8.70;;;;;;;;;;5089641;28;20446;-57
2021/08/11 05:05:05;;;;;;;9.53;8.63;;;;;;;;;;5089868;28;20438;-56
2021/08/11 05:07:32;;;;;;;8.47;7.67;;;;;;;;;;5089092;28;20920;-56
2021/08/11 05:10:00;;;;;;;9.93;8.37;;;;;;;;;;5089644;28;20500;-57
2021/08/11 05:12:27;;;;;;;8.90;8.00;;;;;;;;;;5089708;28;20495;-56
2021/08/11 05:14:54;;;;;;;9.73;8.43;;;;;;;;;;5089819;28;20442;-56
2021/08/11 05:17:23;;;;;;;11.40;8.00;;;;;;;;;;5089403;28;20462;-57
2021/08/11 05:19:50;;;;;;;9.10;8.20;;;;;;;;;;5075261;28;20443;-57
2021/08/11 05:22:17;;;;;;;8.53;7.63;;;;;;;;;;5075488;28;20862;-56
2021/08/11 05:24:45;;;;;;;10.40;9.30;;;;;;;;;;5076010;28;20447;-56
2021/08/11 05:27:13;;;;;;;9.77;8.80;;;;;;;;;;5075387;28;20474;-57
2021/08/11 05:29:42;;;;;;;9.70;8.70;;;;;;;;;;5075426;28;20492;-57
2021/08/11 05:32:09;;;;;;;9.80;8.80;;;;;;;;;;5075612;28;20453;-56
2021/08/11 05:34:38;;;;;;;10.67;9.37;;;;;;;;;;5075698;28;20493;-57
2021/08/11 05:37:05;;;;;;;9.70;8.73;;;;;;;;;;5075580;28;20471;-56
2021/08/11 05:39:33;;;;;;;11.63;10.33;;;;;;;;;;5075207;28;21005;-58
2021/08/11 05:42:00;;;;;;;10.03;8.97;;;;;;;;;;5075371;28;20447;-57
2021/08/11 05:44:27;;;;;;;12.10;10.33;;;;;;;;;;5075257;28;20504;-55
2021/08/11 05:46:54;;;;;;;10.67;9.60;;;;;;;;;;5075318;28;20487;-57
2021/08/11 05:49:21;;;;;;;10.63;9.37;;;;;;;;;;5075241;28;20554;-55
2021/08/11 05:51:50;;;;;;;13.30;10.47;;;;;;;;;;5075363;28;20439;-57
2021/08/11 05:54:18;;;;;;;11.50;9.63;;;;;;;;;;5075212;28;20451;-57
2021/08/11 05:56:45;;;;;;;12.03;10.83;;;;;;;;;;5075207;28;20524;-58
2021/08/11 05:59:12;;;;;;;13.40;10.30;;;;;;;;;;5074939;28;20443;-57
2021/08/11 06:01:39;;;;;;;13.90;10.57;;;;;;;;;;5075086;28;20448;-57
2021/08/11 06:04:07;;;;;;;11.90;10.63;;;;;;;;;;5075328;28;20447;-57
2021/08/11 06:06:34;;;;;;;12.27;10.80;;;;;;;;;;5074510;28;20473;-57
2021/08/11 06:09:02;;;;;;;12.87;11.57;;;;;;;;;;5074961;28;20447;-57
2021/08/11 06:11:30;;;;;;;12.13;10.80;;;;;;;;;;5074874;28;20509;-57
2021/08/11 06:13:57;;;;;;;12.83;11.53;;;;;;;;;;5074606;28;20454;-55
2021/08/11 06:16:24;;;;;;;13.40;12.10;;;;;;;;;;5074526;28;20467;-56
2021/08/11 06:18:55;;;;;;;14.50;10.90;;;;;;;;;;5074401;28;20447;-56
2021/08/11 06:21:22;;;;;;;12.83;11.43;;;;;;;;;;5074369;28;20439;-57
2021/08/11 06:23:51;;;;;;;12.47;10.90;;;;;;;;;;5074627;28;20496;-56
2021/08/11 06:26:20;;;;;;;13.57;12.17;;;;;;;;;;5074402;28;20865;-57
2021/08/11 06:28:47;;;;;;;13.63;12.07;;;;;;;;;;5074052;28;20840;-57
2021/08/11 06:31:17;;;;;;;12.77;11.57;;;;;;;;;;5073068;28;20447;-57
2021/08/11 06:33:44;;;;;;;13.60;12.30;;;;;;;;;;5075098;28;20443;-56
2021/08/11 06:36:11;;;;;;;16.23;12.97;;;;;;;;;;5074839;28;20467;-56
2021/08/11 06:38:39;;;;;;;15.30;13.13;;;;;;;;;;5074503;28;20801;-58
2021/08/11 06:41:06;;;;;;;14.50;11.73;;;;;;;;;;5074855;28;20444;-57
2021/08/11 06:43:35;;;;;;;15.90;12.73;;;;;;;;;;5075105;28;20443;-58
2021/08/11 06:46:02;;;;;;;14.87;13.27;;;;;;;;;;5075049;28;20475;-57
2021/08/11 06:48:29;;;;;;;14.23;12.83;;;;;;;;;;5073962;28;20528;-57
2021/08/11 06:50:56;;;;;;;15.10;12.40;;;;;;;;;;5074146;28;20497;-57
2021/08/11 06:53:24;;;;;;;16.00;14.30;;;;;;;;;;5073720;28;20443;-57
2021/08/11 06:55:51;;;;;;;16.73;12.37;;;;;;;;;;5073936;28;20443;-57
2021/08/11 06:58:19;;;;;;;15.27;12.73;;;;;;;;;;5074145;28;20851;-57
2021/08/11 07:00:47;;;;;;;16.67;13.20;;;;;;;;;;5073643;28;20553;-56
2021/08/11 07:03:16;;;;;;;16.53;14.90;;;;;;;;;;5073518;28;20447;-57
2021/08/11 07:05:43;;;;;;;15.53;13.90;;;;;;;;;;5073631;28;20451;-56
2021/08/11 07:08:10;;;;;;;16.57;13.90;;;;;;;;;;5073285;28;20487;-57
2021/08/11 07:10:38;;;;;;;17.30;14.47;;;;;;;;;;5073398;28;20447;-57
2021/08/11 07:13:05;;;;;;;18.63;15.70;;;;;;;;;;5073622;28;20501;-57
2021/08/11 07:15:32;;;;;;;16.73;15.00;;;;;;;;;;5073621;28;20861;-57
2021/08/11 07:18:01;;;;;;;16.67;14.87;;;;;;;;;;5073379;28;20494;-57
2021/08/11 07:20:29;;;;;;;17.17;15.37;;;;;;;;;;5073267;28;20443;-56
2021/08/11 07:22:58;;;;;;;18.73;16.60;;;;;;;;;;5073310;28;20489;-57
2021/08/11 07:25:26;;;;;;;16.77;14.10;;;;;;;;;;5073544;28;20448;-57
2021/08/11 07:27:53;;;;;;;17.27;14.87;;;;;;;;;;5073136;28;20516;-56
2021/08/11 07:30:21;;;;;;;17.83;15.80;;;;;;;;;;5073513;28;20443;-56
2021/08/11 07:32:48;;;;;;;21.53;15.00;;;;;;;;;;5073380;28;20447;-54
2021/08/11 07:35:17;;;;;;;18.23;15.50;;;;;;;;;;5073001;28;20943;-57
2021/08/11 07:37:48;;;;;;;19.73;14.90;;;;;;;;;;5073213;28;20452;-57
2021/08/11 07:40:15;;;;;;;14.07;12.60;;;;;;;;;;5073425;28;20443;-56
2021/08/11 07:42:43;;;;;;;16.23;14.60;;;;;;;;;;5073012;28;20921;-57
2021/08/11 07:45:10;;;;;;;17.17;14.80;;;;;;;;;;5072668;28;20441;-57
2021/08/11 07:47:38;;;;;;;16.03;14.40;;;;;;;;;;5073172;28;20476;-56
2021/08/11 07:50:06;;;;;;;13.93;12.27;;;;;;;;;;5073105;28;20450;-58
2021/08/11 07:52:34;;;;;;;18.80;13.53;;;;;;;;;;5073047;28;20471;-57
2021/08/11 07:55:01;;;;;;;14.93;12.73;;;;;;;;;;5073564;28;20502;-56
2021/08/11 07:57:29;;;;;;;13.30;11.90;;;;;;;;;;5073284;28;20818;-57
2021/08/11 07:59:56;;;;;;;13.97;12.30;;;;;;;;;;5073819;28;20436;-58
2021/08/11 08:02:23;;;;;;;16.90;11.50;;;;;;;;;;5073894;28;20450;-59
2021/08/11 08:04:50;;;;;;;12.33;11.07;;;;;;;;;;5073195;28;20498;-56
2021/08/11 08:07:18;;;;;;;11.83;10.77;;;;;;;;;;5073472;28;20894;-58
2021/08/11 08:09:46;;;;;;;12.80;11.50;;;;;;;;;;5072977;28;20445;-57
2021/08/11 08:12:13;;;;;;;13.63;11.27;;;;;;;;;;5072935;28;20442;-56
2021/08/11 08:14:41;;;;;;;13.20;11.90;;;;;;;;;;5072872;28;20449;-57
2021/08/11 08:17:08;;;;;;;15.43;13.83;;;;;;;;;;5072988;28;20548;-58
2021/08/11 08:19:35;;;;;;;14.33;12.80;;;;;;;;;;5072301;28;20933;-58
2021/08/11 08:22:02;;;;;;;17.33;14.47;;;;;;;;;;5072268;28;20442;-55
2021/08/11 08:24:32;;;;;;;17.47;15.60;;;;;;;;;;5072736;28;20438;-57
2021/08/11 08:27:00;;;;;;;20.30;15.90;;;;;;;;;;5072604;28;20465;-57
2021/08/11 08:29:28;;;;;;;17.00;15.20;;;;;;;;;;5072342;28;20998;-55
2021/08/11 08:31:55;;;;;;;19.37;14.70;;;;;;;;;;5072786;28;20446;-57
2021/08/11 08:34:22;;;;;;;18.73;13.70;;;;;;;;;;5072099;28;20925;-57
2021/08/11 08:36:49;;;;;;;14.37;12.83;;;;;;;;;;5072311;28;20465;-57
2021/08/11 08:39:17;;;;;;;15.00;12.50;;;;;;;;;;5072397;28;20452;-56
2021/08/11 08:41:45;;;;;;;12.57;11.37;;;;;;;;;;5072812;28;20453;-58
2021/08/11 08:44:14;;;;;;;13.67;12.27;;;;;;;;;;5072273;28;20497;-56
2021/08/11 08:46:43;;;;;;;13.00;11.73;;;;;;;;;;5072631;28;20579;-55
2021/08/11 08:49:11;;;;;;;14.97;12.97;;;;;;;;;;5074240;28;20909;-58
2021/08/11 08:51:43;;;;;;;13.40;11.60;;;;;;;;;;5074485;28;20486;-58
2021/08/11 08:54:10;;;;;;;13.23;11.50;;;;;;;;;;5076133;28;20433;-57
2021/08/11 08:56:38;;;;;;;13.80;12.30;;;;;;;;;;5076363;28;20469;-57
2021/08/11 08:59:05;;;;;;;12.00;10.73;;;;;;;;;;5076042;28;20491;-57
2021/08/11 09:01:34;;;;;;;12.37;11.10;;;;;;;;;;5075757;28;20449;-56
2021/08/11 09:04:02;;;;;;;14.13;11.27;;;;;;;;;;5075717;28;20545;-57
2021/08/11 09:06:32;;;;;;;12.63;11.30;;;;;;;;;;5075821;28;20476;-57
2021/08/11 09:09:03;;;;;;;12.57;11.20;;;;;;;;;;5075987;28;20470;-54
2021/08/11 09:11:30;;;;;;;11.50;10.30;;;;;;;;;;5075695;28;20430;-56
2021/08/11 09:14:17;;;;;;;14.00;9.80;;;;;;;;;;5075988;28;20499;-58
2021/08/11 09:16:49;;;;;;;14.30;12.63;;;;;;;;;;5075892;28;20507;-57
2021/08/11 09:19:17;;;;;;;12.30;11.10;;;;;;;;;;5075937;28;20523;-57
2021/08/11 09:21:57;;;;;;;12.57;11.30;;;;;;;;;;5075501;28;20437;-56
2021/08/11 09:24:25;;;;;;;17.13;11.90;;;;;;;;;;5075501;28;20430;-58
2021/08/11 09:26:53;;;;;;;13.87;12.10;;;;;;;;;;5075884;28;20973;-57
2021/08/11 09:29:21;;;;;;;13.43;12.03;;;;;;;;;;5076515;28;20478;-56
2021/08/11 09:31:49;;;;;;;13.90;11.33;;;;;;;;;;5075353;28;20442;-57
2021/08/11 09:34:16;;;;;;;14.20;11.03;;;;;;;;;;5075231;28;20534;-57
2021/08/11 09:36:48;;;;;;;15.10;11.43;;;;;;;;;;5075203;28;20526;-57
2021/08/11 09:39:15;;;;;;;12.10;10.90;;;;;;;;;;5076206;28;20459;-56
2021/08/11 09:41:58;;;;;;;12.47;8.93;;;;;;;;;;5075380;28;20441;-57
2021/08/11 09:44:25;;;;;;;10.70;9.13;;;;;;;;;;5075362;28;20440;-58
2021/08/11 09:46:54;;;;;;;11.77;10.50;;;;;;;;;;5075438;28;20518;-58
2021/08/11 09:49:24;;;;;;;10.60;9.60;;;;;;;;;;5075164;28;20477;-58
2021/08/11 09:51:55;;;;;;;9.70;8.70;;;;;;;;;;5074875;28;20568;-58
2021/08/11 09:54:23;;;;;;;11.97;10.00;;;;;;;;;;5075267;28;20481;-58
2021/08/11 09:56:50;;;;;;;11.87;9.50;;;;;;;;;;5075399;28;20474;-58
2021/08/11 09:59:17;;;;;;;9.20;7.50;;;;;;;;;;5075293;28;20447;-58
2021/08/11 10:01:45;;;;;;;8.70;7.50;;;;;;;;;;5074715;28;20444;-58
2021/08/11 10:04:14;;;;;;;8.20;7.23;;;;;;;;;;5075080;28;20924;-58
2021/08/11 10:06:41;;;;;;;10.40;7.40;;;;;;;;;;5074655;28;20485;-58
2021/08/11 10:09:13;;;;;;;7.50;6.63;;;;;;;;;;5075156;28;20482;-58
2021/08/11 10:11:41;;;;;;;8.73;7.70;;;;;;;;;;5074713;28;20496;-58
2021/08/11 10:14:10;;;;;;;8.07;7.13;;;;;;;;;;5074792;28;20449;-57
2021/08/11 10:16:37;;;;;;;8.53;5.97;;;;;;;;;;5098726;22;20468;-56
2021/08/11 10:19:05;;;;;;;9.03;6.87;;;;;;;;;;5034396;28;20453;-59
2021/08/11 10:21:35;;;;;;;7.50;6.67;;;;;;;;;;5034321;28;20527;-59
2021/08/11 10:24:03;;;;;;;7.37;6.60;;;;;;;;;;5034555;28;20996;-58
2021/08/11 10:26:30;;;;;;;7.07;6.37;;;;;;;;;;5034263;28;20438;-57
2021/08/11 10:28:59;;;;;;;8.27;6.00;;;;;;;;;;5014394;28;20485;-59
2021/08/11 10:31:27;;;;;;;6.67;6.03;;;;;;;;;;5014444;28;20500;-59
2021/08/11 10:33:54;;;;;;;6.40;5.47;;;;;;;;;;5014630;28;20569;-60
2021/08/11 10:36:21;;;;;;;6.40;5.53;;;;;;;;;;5014259;28;20865;-58
2021/08/11 10:38:50;;;;;;;5.63;5.13;;;;;;;;;;5014367;28;20554;-60
2021/08/11 10:41:17;;;;;;;7.83;5.90;;;;;;;;;;5014429;28;20508;-58
2021/08/11 10:43:44;;;;;;;5.70;5.20;;;;;;;;;;5014320;28;20449;-59
2021/08/11 10:46:14;;;;;;;6.63;5.90;;;;;;;;;;5014086;28;20450;-59
2021/08/11 10:48:42;;;;;;;6.20;5.60;;;;;;;;;;5014136;28;20540;-60
2021/08/11 10:51:10;;;;;;;8.50;6.20;;;;;;;;;;5013783;28;20994;-59
2021/08/11 10:53:37;;;;;;;7.50;5.90;;;;;;;;;;5014101;28;20494;-58
2021/08/11 10:56:06;;;;;;;7.33;6.53;;;;;;;;;;5013671;28;20867;-59
2021/08/11 10:58:40;;;;;;;9.23;6.07;;;;;;;;;;5013867;28;20467;-59
2021/08/11 11:01:26;;;;;;;8.53;5.80;;;;;;;;;;5014272;28;20454;-60
2021/08/11 11:03:54;;;;;;;7.50;6.57;;;;;;;;;;5013898;28;20513;-59
2021/08/11 11:06:21;;;;;;;9.33;6.23;;;;;;;;;;5013955;28;20454;-60
2021/08/11 11:08:51;;;;;;;8.77;7.37;;;;;;;;;;5013874;28;20580;-60
2021/08/11 11:11:40;;;;;;;8.47;7.57;;;;;;;;;;5013808;28;20481;-60
2021/08/11 11:14:29;;;;;;;8.57;5.80;;;;;;;;;;5013545;28;20776;-60
2021/08/11 11:17:05;;;;;;;4.50;4.10;;;;;;;;;;5012726;28;20582;-59
2021/08/11 11:19:33;;;;;;;5.27;4.77;;;;;;;;;;5013511;28;20426;-57
2021/08/11 11:22:22;;;;;;;6.60;3.80;;;;;;;;;;5013976;28;20452;-59
2021/08/11 11:24:49;;;;;;;6.30;5.70;;;;;;;;;;5013744;28;20922;-60
2021/08/11 11:27:35;;;;;;;5.93;5.33;;;;;;;;;;5013739;28;20553;-59
2021/08/11 11:30:04;;;;;;;5.53;4.20;;;;;;;;;;5013256;28;21062;-59
2021/08/11 11:32:31;;;;;;;5.70;5.10;;;;;;;;;;5013502;28;20457;-59
2021/08/11 11:35:13;;;;;;;6.27;5.70;;;;;;;;;;5012714;28;20522;-58
2021/08/11 11:37:40;;;;;;;4.57;4.17;;;;;;;;;;5012630;28;20521;-59
2021/08/11 11:40:17;;;;;;;5.50;5.00;;;;;;;;;;5012808;28;20519;-59
2021/08/11 11:42:45;;;;;;;5.00;4.47;;;;;;;;;;5013281;28;20446;-58
2021/08/11 11:45:14;;;;;;;6.60;4.90;;;;;;;;;;5012952;28;20451;-58
2021/08/11 11:48:15;;;;;;;5.13;4.60;;;;;;;;;;5013168;28;20475;-59
2021/08/11 11:50:45;;;;;;;5.43;4.73;;;;;;;;;;5013399;28;20469;-57
2021/08/11 11:53:29;;;;;;;5.93;4.47;;;;;;;;;;5013217;28;20807;-60
2021/08/11 11:55:57;;;;;;;5.67;5.13;;;;;;;;;;5013336;28;20488;-59
2021/08/11 11:58:25;;;;;;;5.17;4.77;;;;;;;;;;5013223;28;20476;-59
2021/08/11 12:01:01;;;;;;;6.67;4.90;;;;;;;;;;5013584;28;20451;-59
2021/08/11 12:03:35;;;;;;;5.97;4.93;;;;;;;;;;5013606;28;20429;-58
2021/08/11 12:06:03;;;;;;;7.33;5.03;;;;;;;;;;5014007;28;20538;-58
2021/08/11 12:08:32;;;;;;;7.30;5.60;;;;;;;;;;5013398;28;20898;-59
2021/08/11 12:11:03;;;;;;;5.20;4.70;;;;;;;;;;5015783;28;20451;-60
2021/08/11 12:13:39;;;;;;;6.83;5.10;;;;;;;;;;5016827;28;20522;-58
2021/08/11 12:16:08;;;;;;;5.83;5.23;;;;;;;;;;5016759;28;20509;-59
2021/08/11 12:18:36;;;;;;;5.97;5.07;;;;;;;;;;5015616;28;20487;-59
2021/08/11 12:21:03;;;;;;;5.77;4.80;;;;;;;;;;5020962;28;20441;-57
2021/08/11 12:23:31;;;;;;;5.60;4.57;;;;;;;;;;5021745;28;20445;-58
2021/08/11 12:25:59;;;;;;;7.73;5.73;;;;;;;;;;5022627;28;20476;-58
2021/08/11 12:28:32;;;;;;;5.80;4.57;;;;;;;;;;5021214;28;20636;-58
2021/08/11 12:31:00;;;;;;;4.93;4.43;;;;;;;;;;5019094;28;20771;-58
2021/08/11 12:33:35;;;;;;;4.43;3.80;;;;;;;;;;5017313;28;20444;-58
2021/08/11 12:36:03;;;;;;;5.50;4.67;;;;;;;;;;5017267;28;20434;-59
2021/08/11 12:38:31;;;;;;;8.77;4.50;;;;;;;;;;5017072;28;20509;-58
2021/08/11 12:41:00;;;;;;;5.13;4.63;;;;;;;;;;5018312;28;20448;-59
2021/08/11 12:43:37;;;;;;;6.93;4.53;;;;;;;;;;5017033;28;20501;-58
2021/08/11 12:46:05;;;;;;;5.13;4.07;;;;;;;;;;5017048;28;20554;-59
2021/08/11 12:48:35;;;;;;;5.13;4.73;;;;;;;;;;5016644;28;20482;-59
2021/08/11 12:51:03;;;;;;;5.93;4.37;;;;;;;;;;5016489;28;20896;-59
2021/08/11 12:53:31;;;;;;;7.13;4.43;;;;;;;;;;5016443;28;20949;-59
2021/08/11 12:56:08;;;;;;;5.20;4.23;;;;;;;;;;5016523;28;20466;-59
2021/08/11 12:58:56;;;;;;;5.30;4.57;;;;;;;;;;5016356;28;20478;-58
2021/08/11 13:01:45;;;;;;;6.53;4.80;;;;;;;;;;5013317;28;20455;-59
2021/08/11 13:04:22;;;;;;;6.40;3.97;;;;;;;;;;5013426;28;20871;-58
2021/08/11 13:06:50;;;;;;;5.50;4.80;;;;;;;;;;5016120;28;20441;-59
2021/08/11 13:09:24;;;;;;;6.97;4.87;;;;;;;;;;5016379;28;20489;-59
2021/08/11 13:11:53;;;;;;;6.60;4.67;;;;;;;;;;5015873;28;20441;-59
2021/08/11 13:14:35;;;;;;;5.30;4.50;;;;;;;;;;5015976;28;20453;-58
2021/08/11 13:17:02;;;;;;;5.13;4.63;;;;;;;;;;5015401;28;20563;-58
2021/08/11 13:19:31;;;;;;;5.37;4.23;;;;;;;;;;5015568;28;20504;-58
2021/08/11 13:21:58;;;;;;;4.90;4.13;;;;;;;;;;5015791;28;20449;-58
2021/08/11 13:24:26;;;;;;;5.60;4.53;;;;;;;;;;5015639;28;20449;-58
2021/08/11 13:26:56;;;;;;;5.63;4.50;;;;;;;;;;5015973;28;20474;-58
2021/08/11 13:29:24;;;;;;;5.70;4.70;;;;;;;;;;5015801;28;20474;-60
2021/08/11 13:31:52;;;;;;;5.93;4.67;;;;;;;;;;5015442;28;20455;-59
2021/08/11 13:34:19;;;;;;;5.10;3.80;;;;;;;;;;5015774;28;20524;-59
2021/08/11 13:36:48;;;;;;;5.73;4.47;;;;;;;;;;5015608;28;20449;-59
2021/08/11 13:39:15;;;;;;;5.80;4.00;;;;;;;;;;5015669;28;20442;-59
2021/08/11 13:41:42;;;;;;;4.60;3.93;;;;;;;;;;5015804;28;20452;-59
2021/08/11 13:44:11;;;;;;;6.37;4.50;;;;;;;;;;5015788;28;20861;-58
2021/08/11 13:46:39;;;;;;;5.37;3.83;;;;;;;;;;5015248;28;20457;-59
2021/08/11 13:49:06;;;;;;;6.63;3.57;;;;;;;;;;5015376;28;20488;-57
2021/08/11 13:51:33;;;;;;;6.80;3.80;;;;;;;;;;5015171;28;20954;-57
2021/08/11 13:54:02;;;;;;;4.47;3.90;;;;;;;;;;5016776;28;20450;-58
2021/08/11 13:56:30;;;;;;;5.27;4.10;;;;;;;;;;5015406;28;20509;-58
2021/08/11 13:58:57;;;;;;;5.00;3.80;;;;;;;;;;5015193;28;20501;-58
2021/08/11 14:01:24;;;;;;;5.93;3.87;;;;;;;;;;5015825;28;20841;-58
2021/08/11 14:03:52;;;;;;;3.70;3.40;;;;;;;;;;5015354;28;20454;-58
2021/08/11 14:06:19;;;;;;;4.57;4.17;;;;;;;;;;5014771;28;20939;-59
2021/08/11 14:08:46;;;;;;;4.83;3.27;;;;;;;;;;5015004;28;20492;-57
2021/08/11 14:11:15;;;;;;;6.17;4.13;;;;;;;;;;5015091;28;20484;-58
2021/08/11 14:13:42;;;;;;;4.17;3.77;;;;;;;;;;5014724;28;20448;-58
2021/08/11 14:16:09;;;;;;;5.50;4.23;;;;;;;;;;5014751;28;20449;-58
2021/08/11 14:18:37;;;;;;;6.63;4.30;;;;;;;;;;5014437;28;20537;-58
2021/08/11 14:21:04;;;;;;;5.70;4.13;;;;;;;;;;5014744;28;20442;-58
2021/08/11 14:23:31;;;;;;;5.80;3.80;;;;;;;;;;5014345;28;20934;-59
2021/08/11 14:25:58;;;;;;;4.97;3.50;;;;;;;;;;5014520;28;20638;-58
2021/08/11 14:28:27;;;;;;;5.67;4.30;;;;;;;;;;5014443;28;20535;-58
2021/08/11 14:30:54;;;;;;;3.80;3.50;;;;;;;;;;5014518;28;20485;-58
2021/08/11 14:33:21;;;;;;;4.90;3.80;;;;;;;;;;5015133;28;20860;-59
2021/08/11 14:35:49;;;;;;;5.07;4.20;;;;;;;;;;5015217;28;20451;-58
2021/08/11 14:38:16;;;;;;;4.57;4.13;;;;;;;;;;5015920;28;20469;-59